createdAt,value
2016-05-08T00:02:34.187Z,2
2016-05-08T00:05:47.367Z,2
2016-05-08T00:09:06.843Z,2
2016-05-08T00:12:08.992Z,2
2016-05-08T00:15:21.469Z,2
2016-05-08T00:18:34.495Z,2
2016-05-08T00:21:47.425Z,2
2016-05-08T00:25:06.144Z,2
2016-05-08T00:28:08.307Z,2
2016-05-08T00:31:20.723Z,2
2016-05-08T00:34:32.826Z,2
2016-05-08T00:37:45.914Z,2
2016-05-08T00:41:04.952Z,4
2016-05-08T00:44:07.180Z,4
2016-05-08T00:47:20.109Z,4
2016-05-08T00:50:33.244Z,4
2016-05-08T00:53:46.394Z,4
2016-05-08T00:57:05.323Z,4
2016-05-08T01:00:07.348Z,4
2016-05-08T01:03:20.589Z,4
2016-05-08T01:06:33.398Z,4
2016-05-08T01:09:46.545Z,4
2016-05-08T01:13:05.476Z,4
2016-05-08T01:16:07.719Z,4
2016-05-08T01:19:20.555Z,4
2016-05-08T01:22:33.753Z,4
2016-05-08T01:25:46.730Z,4
2016-05-08T01:29:05.848Z,4
2016-05-08T01:32:08.043Z,4
2016-05-08T01:35:20.880Z,4
2016-05-08T01:38:33.825Z,4
2016-05-08T01:41:47.132Z,4
2016-05-08T01:45:05.798Z,4
2016-05-08T01:48:07.868Z,4
2016-05-08T01:51:20.579Z,4
2016-05-08T01:54:33.369Z,4
2016-05-08T01:57:46.660Z,4
2016-05-08T02:01:05.294Z,4
2016-05-08T02:04:07.535Z,4
2016-05-08T02:07:20.700Z,5
2016-05-08T02:10:33.645Z,5
2016-05-08T02:13:46.626Z,5
2016-05-08T02:17:05.492Z,5
2016-05-08T02:20:07.735Z,5
2016-05-08T02:23:20.962Z,5
2016-05-08T02:26:34.017Z,5
2016-05-08T02:29:47.184Z,5
2016-05-08T02:33:06.270Z,5
2016-05-08T02:36:09.278Z,5
2016-05-08T02:39:21.271Z,5
2016-05-08T02:42:34.437Z,5
2016-05-08T02:45:47.606Z,6
2016-05-08T02:49:04.738Z,7
2016-05-08T02:52:07.009Z,8
2016-05-08T02:55:19.942Z,11
2016-05-08T02:58:32.775Z,14
2016-05-08T03:01:45.637Z,19
2016-05-08T03:05:04.632Z,26
2016-05-08T03:08:06.782Z,36
2016-05-08T03:11:19.807Z,51
2016-05-08T03:14:32.737Z,71
2016-05-08T03:17:46.060Z,98
2016-05-08T03:21:05.522Z,128
2016-05-08T03:24:07.654Z,163
2016-05-08T03:27:21.210Z,205
2016-05-08T03:30:34.233Z,252
2016-05-08T03:33:47.150Z,307
2016-05-08T03:37:06.361Z,368
2016-05-08T03:40:08.619Z,434
2016-05-08T03:43:21.691Z,507
2016-05-08T03:46:35.057Z,585
2016-05-08T03:49:48.240Z,667
2016-05-08T03:53:07.576Z,753
2016-05-08T03:56:09.756Z,838
2016-05-08T03:59:22.795Z,927
2016-05-08T04:02:36.086Z,1019
2016-05-08T04:05:49.174Z,1114
2016-05-08T04:09:08.166Z,1212
2016-05-08T04:12:10.300Z,1305
2016-05-08T04:15:23.370Z,1399
2016-05-08T04:18:36.722Z,1495
2016-05-08T04:21:50.015Z,1590
2016-05-08T04:25:09.287Z,1689
2016-05-08T04:28:11.531Z,1777
2016-05-08T04:31:24.647Z,1859
2016-05-08T04:34:37.686Z,1951
2016-05-08T04:37:51.166Z,2045
2016-05-08T04:41:04.425Z,2134
2016-05-08T04:44:17.526Z,2219
2016-05-08T04:47:30.644Z,2305
2016-05-08T04:50:44.014Z,2390
2016-05-08T04:54:02.928Z,2481
2016-05-08T04:57:05.312Z,2593
2016-05-08T05:00:18.506Z,2709
2016-05-08T05:03:31.625Z,2853
2016-05-08T05:06:44.931Z,3082
2016-05-08T05:10:04.111Z,3411
2016-05-08T05:13:06.604Z,3739
2016-05-08T05:16:19.909Z,3042
2016-05-08T05:19:34.073Z,5605
2016-05-08T05:22:48.443Z,3117
2016-05-08T05:26:08.530Z,496
2016-05-08T05:29:12.287Z,433
2016-05-08T05:32:26.515Z,397
2016-05-08T05:35:40.885Z,384
2016-05-08T05:39:01.236Z,384
2016-05-08T05:42:04.995Z,384
2016-05-08T05:45:19.408Z,384
2016-05-08T05:48:33.667Z,384
2016-05-08T05:51:48.163Z,384
2016-05-08T05:55:08.623Z,384
2016-05-08T05:58:12.303Z,384
2016-05-08T06:01:26.592Z,471
2016-05-08T06:04:41.354Z,8426
2016-05-08T06:08:01.830Z,8508
2016-05-08T06:11:05.808Z,7614
2016-05-08T06:14:20.362Z,7901
2016-05-08T06:17:35.010Z,7997
2016-05-08T06:20:49.880Z,384
2016-05-08T06:24:04.654Z,384
2016-05-08T06:27:19.491Z,384
2016-05-08T06:30:34.358Z,384
2016-05-08T06:33:49.165Z,384
2016-05-08T06:37:03.939Z,384
2016-05-08T06:40:18.728Z,384
2016-05-08T06:43:33.394Z,384
2016-05-08T06:46:48.404Z,384
2016-05-08T06:50:09.271Z,384
2016-05-08T06:53:13.764Z,384
2016-05-08T06:56:28.834Z,384
2016-05-08T06:59:43.923Z,384
2016-05-08T07:03:04.947Z,384
2016-05-08T07:06:09.236Z,384
2016-05-08T07:09:23.978Z,384
2016-05-08T07:12:38.877Z,384
2016-05-08T07:15:59.888Z,384
2016-05-08T07:19:04.115Z,384
2016-05-08T07:22:18.920Z,384
2016-05-08T07:25:33.757Z,384
2016-05-08T07:28:48.720Z,384
2016-05-08T07:32:03.837Z,384
2016-05-08T07:35:18.954Z,384
2016-05-08T07:38:33.729Z,384
2016-05-08T07:41:48.755Z,384
2016-05-08T07:45:09.497Z,384
2016-05-08T07:48:13.771Z,384
2016-05-08T07:51:28.560Z,384
2016-05-08T07:54:43.555Z,384
2016-05-08T07:58:04.657Z,384
2016-05-08T08:01:08.884Z,384
2016-05-08T08:04:23.798Z,384
2016-05-08T08:07:38.572Z,384
2016-05-08T08:10:53.551Z,384
2016-05-08T08:14:08.372Z,384
2016-05-08T08:17:22.911Z,384
2016-05-08T08:20:37.169Z,834
2016-05-08T08:23:51.258Z,785
2016-05-08T08:27:05.313Z,661
2016-05-08T08:30:19.634Z,586
2016-05-08T08:33:34.517Z,608
2016-05-08T08:36:49.043Z,598
2016-05-08T08:40:03.817Z,578
2016-05-08T08:43:18.200Z,405
2016-05-08T08:46:32.724Z,384
2016-05-08T08:49:47.375Z,384
2016-05-08T08:53:07.993Z,384
2016-05-08T08:56:12.516Z,384
2016-05-08T08:59:27.055Z,384
2016-05-08T09:02:41.767Z,384
2016-05-08T09:06:02.356Z,403
2016-05-08T09:09:06.348Z,442
2016-05-08T09:12:21.137Z,533
2016-05-08T09:15:36.020Z,399
2016-05-08T09:18:50.624Z,991
2016-05-08T09:22:05.367Z,384
2016-05-08T09:25:19.829Z,384
2016-05-08T09:28:34.337Z,384
2016-05-08T09:31:48.801Z,384
2016-05-08T09:35:09.402Z,384
2016-05-08T09:38:14.145Z,384
2016-05-08T09:41:26.997Z,12900
2016-05-08T09:44:40.442Z,384
2016-05-08T09:48:00.656Z,7451
2016-05-08T09:51:04.039Z,8498
2016-05-08T09:54:17.719Z,6291
2016-05-08T09:57:31.602Z,5960
2016-05-08T10:00:45.548Z,5855
2016-05-08T10:04:05.605Z,5860
2016-05-08T10:07:08.942Z,5799
2016-05-08T10:10:22.653Z,5828
2016-05-08T10:13:36.302Z,6035
2016-05-08T10:16:50.344Z,6100
2016-05-08T10:20:04.352Z,6284
2016-05-08T10:23:15.610Z,6204
2016-05-08T10:26:29.519Z,7569
2016-05-08T10:29:42.543Z,5702
2016-05-08T10:33:02.319Z,5531
2016-05-08T10:36:05.468Z,6119
2016-05-08T10:39:19.398Z,6360
2016-05-08T10:42:33.671Z,6021
2016-05-08T10:45:47.367Z,5382
2016-05-08T10:49:07.128Z,4970
2016-05-08T10:52:10.183Z,4731
2016-05-08T10:55:24.034Z,4617
2016-05-08T10:58:37.464Z,4529
2016-05-08T11:01:51.225Z,4378
2016-05-08T11:05:05.060Z,4645
2016-05-08T11:08:18.741Z,4453
2016-05-08T11:11:32.577Z,4708
2016-05-08T11:14:46.335Z,4861
2016-05-08T11:18:06.159Z,5003
2016-05-08T11:21:09.448Z,4795
2016-05-08T11:24:22.956Z,5450
2016-05-08T11:27:37.120Z,3984
2016-05-08T11:30:50.209Z,4220
2016-05-08T11:34:04.202Z,3883
2016-05-08T11:37:17.976Z,3818
2016-05-08T11:40:31.515Z,3689
2016-05-08T11:43:45.367Z,3761
2016-05-08T11:47:05.095Z,3929
2016-05-08T11:50:08.377Z,4368
2016-05-08T11:53:22.224Z,3698
2016-05-08T11:56:32.808Z,3636
2016-05-08T11:59:46.610Z,4293
2016-05-08T12:03:06.468Z,4545
2016-05-08T12:06:09.668Z,3570
2016-05-08T12:09:23.165Z,4999
2016-05-08T12:12:36.707Z,4358
2016-05-08T12:15:50.356Z,4403
2016-05-08T12:19:10.023Z,4254
2016-05-08T12:22:13.062Z,3964
2016-05-08T12:25:26.569Z,5088
2016-05-08T12:28:40.375Z,3297
2016-05-08T12:31:53.963Z,3758
2016-05-08T12:35:07.597Z,4474
2016-05-08T12:38:21.543Z,5063
2016-05-08T12:41:35.238Z,4948
2016-05-08T12:44:48.934Z,4655
2016-05-08T12:48:08.772Z,4767
2016-05-08T12:51:11.764Z,4705
2016-05-08T12:54:25.617Z,3732
2016-05-08T12:57:38.905Z,4066
2016-05-08T13:00:52.652Z,3780
2016-05-08T13:04:05.893Z,3557
2016-05-08T13:07:19.651Z,3353
2016-05-08T13:10:33.394Z,3026
2016-05-08T13:13:47.121Z,3079
2016-05-08T13:17:06.898Z,3014
2016-05-08T13:20:09.858Z,2997
2016-05-08T13:23:23.663Z,2933
2016-05-08T13:26:36.905Z,2952
2016-05-08T13:29:50.352Z,3233
2016-05-08T13:33:09.940Z,2673
2016-05-08T13:36:12.791Z,2743
2016-05-08T13:39:26.504Z,2742
2016-05-08T13:42:40.074Z,2675
2016-05-08T13:45:53.600Z,2716
2016-05-08T13:49:06.998Z,2839
2016-05-08T13:52:20.429Z,2982
2016-05-08T13:55:34.328Z,2808
2016-05-08T13:58:49.945Z,2311
2016-05-08T14:02:07.644Z,2460
2016-05-08T14:05:10.557Z,2796
2016-05-08T14:08:24.065Z,3528
2016-05-08T14:11:37.824Z,2349
2016-05-08T14:14:51.347Z,2331
2016-05-08T14:18:05.092Z,2475
2016-05-08T14:21:18.569Z,2608
2016-05-08T14:24:31.983Z,2265
2016-05-08T14:27:45.789Z,2440
2016-05-08T14:31:05.314Z,2434
2016-05-08T14:34:08.261Z,2393
2016-05-08T14:37:21.800Z,2270
2016-05-08T14:40:35.526Z,2377
2016-05-08T14:43:49.254Z,2239
2016-05-08T14:47:09.014Z,2170
2016-05-08T14:50:11.898Z,2122
2016-05-08T14:53:25.593Z,2215
2016-05-08T14:56:39.366Z,2258
2016-05-08T14:59:53.094Z,2282
2016-05-08T15:03:06.791Z,2285
2016-05-08T15:06:19.815Z,2300
2016-05-08T15:09:33.527Z,2287
2016-05-08T15:12:47.190Z,2255
2016-05-08T15:16:06.640Z,2163
2016-05-08T15:19:09.413Z,2195
2016-05-08T15:22:23.248Z,2356
2016-05-08T15:25:36.929Z,2324
2016-05-08T15:28:49.827Z,2333
2016-05-08T15:32:09.479Z,2110
2016-05-08T15:35:12.441Z,2205
2016-05-08T15:38:26.198Z,2110
2016-05-08T15:41:39.785Z,2118
2016-05-08T15:44:53.417Z,2016
2016-05-08T15:48:07.240Z,2061
2016-05-08T15:51:20.796Z,2099
2016-05-08T15:54:33.787Z,1966
2016-05-08T15:57:47.250Z,1891
2016-05-08T16:01:06.901Z,1839
2016-05-08T16:04:09.846Z,1872
2016-05-08T16:07:23.588Z,1865
2016-05-08T16:10:36.549Z,1726
2016-05-08T16:13:50.339Z,1873
2016-05-08T16:17:09.584Z,1839
2016-05-08T16:20:12.529Z,1834
2016-05-08T16:23:26.163Z,1815
2016-05-08T16:26:39.842Z,1809
2016-05-08T16:29:53.428Z,1815
2016-05-08T16:33:06.643Z,1794
2016-05-08T16:36:20.104Z,1765
2016-05-08T16:39:33.925Z,1715
2016-05-08T16:42:47.479Z,1689
2016-05-08T16:46:07.115Z,1642
2016-05-08T16:49:09.874Z,1605
2016-05-08T16:52:23.475Z,1587
2016-05-08T16:55:36.999Z,1606
2016-05-08T16:58:50.632Z,1706
2016-05-08T17:02:10.127Z,1550
2016-05-08T17:05:12.839Z,1479
2016-05-08T17:08:25.986Z,1443
2016-05-08T17:11:39.120Z,1410
2016-05-08T17:14:52.363Z,1376
2016-05-08T17:18:05.982Z,1350
2016-05-08T17:21:19.726Z,1310
2016-05-08T17:24:33.342Z,1262
2016-05-08T17:27:46.850Z,1225
2016-05-08T17:31:06.284Z,1176
2016-05-08T17:34:09.885Z,1131
2016-05-08T17:37:20.597Z,1084
2016-05-08T17:40:34.119Z,1037
2016-05-08T17:43:47.612Z,993
2016-05-08T17:47:06.967Z,758
2016-05-08T17:50:09.740Z,887
2016-05-08T17:53:23.421Z,786
2016-05-08T17:56:36.991Z,801
2016-05-08T17:59:50.030Z,751
2016-05-08T18:03:09.495Z,704
2016-05-08T18:06:12.174Z,658
2016-05-08T18:09:25.214Z,608
2016-05-08T18:12:38.628Z,557
2016-05-08T18:15:52.104Z,502
2016-05-08T18:19:05.803Z,454
2016-05-08T18:22:19.498Z,409
2016-05-08T18:25:32.960Z,364
2016-05-08T18:28:46.845Z,317
2016-05-08T18:32:05.949Z,270
2016-05-08T18:35:08.817Z,227
2016-05-08T18:38:22.372Z,187
2016-05-08T18:41:35.364Z,151
2016-05-08T18:44:48.935Z,120
2016-05-08T18:48:08.898Z,93
2016-05-08T18:51:11.579Z,70
2016-05-08T18:54:24.806Z,50
2016-05-08T18:57:38.219Z,35
2016-05-08T19:00:51.540Z,26
2016-05-08T19:04:05.191Z,18
2016-05-08T19:07:18.653Z,11
2016-05-08T19:10:32.185Z,8
2016-05-08T19:13:45.817Z,6
2016-05-08T19:17:05.093Z,5
2016-05-08T19:20:07.758Z,4
2016-05-08T19:23:21.063Z,3
2016-05-08T19:26:34.603Z,3
2016-05-08T19:29:47.751Z,2
2016-05-08T19:33:07.089Z,3
2016-05-08T19:36:09.785Z,3
2016-05-08T19:39:23.091Z,3
2016-05-08T19:42:36.427Z,3
2016-05-08T19:45:49.966Z,3
2016-05-08T19:49:09.460Z,3
2016-05-08T19:52:12.079Z,3
2016-05-08T19:55:25.087Z,3
2016-05-08T19:58:38.470Z,2
2016-05-08T20:01:51.150Z,3
2016-05-08T20:05:10.285Z,2
2016-05-08T20:08:12.855Z,2
2016-05-08T20:11:26.114Z,2
2016-05-08T20:14:39.231Z,2
2016-05-08T20:17:52.490Z,3
2016-05-08T20:21:05.750Z,3
2016-05-08T20:24:19.024Z,3
2016-05-08T20:27:32.282Z,2
2016-05-08T20:30:45.664Z,3
2016-05-08T20:34:03.173Z,3
2016-05-08T20:37:05.621Z,3
2016-05-08T20:40:19.036Z,2
2016-05-08T20:43:32.278Z,2
2016-05-08T20:46:45.676Z,3
2016-05-08T20:50:05.172Z,2
2016-05-08T20:53:07.851Z,3
2016-05-08T20:56:20.981Z,3
2016-05-08T20:59:34.201Z,3
2016-05-08T21:02:47.753Z,3
2016-05-08T21:06:06.312Z,3
2016-05-08T21:09:08.332Z,3
2016-05-08T21:12:18.143Z,3
2016-05-08T21:15:31.295Z,3
2016-05-08T21:18:44.618Z,3
2016-05-08T21:22:04.002Z,3
2016-05-08T21:25:06.465Z,3
2016-05-08T21:28:19.490Z,3
2016-05-08T21:31:32.903Z,3
2016-05-08T21:34:46.146Z,3
2016-05-08T21:38:05.310Z,3
2016-05-08T21:41:07.602Z,3
2016-05-08T21:44:20.829Z,3
2016-05-08T21:47:34.274Z,3
2016-05-08T21:50:47.361Z,3
2016-05-08T21:54:06.762Z,3
2016-05-08T21:57:09.208Z,3
2016-05-08T22:00:22.372Z,3
2016-05-08T22:03:35.834Z,3
2016-05-08T22:06:48.748Z,3
2016-05-08T22:10:08.024Z,2
2016-05-08T22:13:10.735Z,3
2016-05-08T22:16:23.712Z,3
2016-05-08T22:19:37.049Z,3
2016-05-08T22:22:50.056Z,3
2016-05-08T22:26:09.260Z,3
2016-05-08T22:29:11.659Z,3
2016-05-08T22:32:23.824Z,3
2016-05-08T22:35:37.144Z,3
2016-05-08T22:38:50.340Z,3
2016-05-08T22:42:09.459Z,3
2016-05-08T22:45:11.828Z,3
2016-05-08T22:48:24.835Z,3
2016-05-08T22:51:37.906Z,3
2016-05-08T22:54:50.710Z,3
2016-05-08T22:58:09.940Z,2
2016-05-08T23:01:12.151Z,3
2016-05-08T23:04:25.378Z,3
2016-05-08T23:07:38.105Z,3
2016-05-08T23:10:50.973Z,3
2016-05-08T23:14:09.983Z,3
2016-05-08T23:17:12.320Z,3
2016-05-08T23:20:25.483Z,3
2016-05-08T23:23:38.601Z,3
2016-05-08T23:26:51.765Z,3
2016-05-08T23:30:10.730Z,3
2016-05-08T23:33:13.159Z,3
2016-05-08T23:36:26.121Z,3
2016-05-08T23:39:39.332Z,3
2016-05-08T23:42:52.292Z,3
2016-05-08T23:46:05.489Z,3
2016-05-08T23:49:18.577Z,3
2016-05-08T23:52:31.960Z,3
2016-05-08T23:55:44.484Z,3
2016-05-08T23:59:03.742Z,3
